Time;durP1;ratioP1;P1;durP2;ratioP2;P2;SDS_P1;SDS_P2;PMS_P1;PMS_P2;Temp;Humidity;BMP_temperature;BMP_pressure;BME280_temperature;BME280_humidity;BME280_pressure;Samples;Min_cycle;Max_cycle;Signal;HPM_P1;HPM_P2
2022/11/10 00:01:59;;;;;;;12.57;3.45;;;;;;;;;;5033216;28;20045;-78
2022/11/10 00:04:25;;;;;;;11.32;3.28;;;;;;;;;;5032295;28;20057;-78
2022/11/10 00:06:51;;;;;;;11.82;2.83;;;;;;;;;;5031449;28;20372;-78
2022/11/10 00:09:17;;;;;;;8.73;3.38;;;;;;;;;;5026740;28;20077;-78
2022/11/10 00:11:43;;;;;;;11.52;3.30;;;;;;;;;;5034465;28;20095;-78
2022/11/10 00:17:00;;;;;;;9.23;2.92;;;;;;;;;;5033997;28;20107;-78
2022/11/10 00:19:27;;;;;;;8.93;2.70;;;;;;;;;;5034247;28;20041;-78
2022/11/10 00:21:53;;;;;;;10.23;3.28;;;;;;;;;;5032739;28;20050;-78
2022/11/10 00:24:19;;;;;;;7.57;2.70;;;;;;;;;;5026874;28;20125;-78
2022/11/10 00:26:45;;;;;;;7.47;2.83;;;;;;;;;;5019901;28;20085;-78
2022/11/10 00:29:11;;;;;;;11.75;2.70;;;;;;;;;;5033527;28;20041;-78
2022/11/10 00:31:37;;;;;;;10.63;2.88;;;;;;;;;;5033384;28;20045;-78
2022/11/10 00:34:03;;;;;;;10.77;2.78;;;;;;;;;;5033687;28;20115;-78
2022/11/10 00:36:29;;;;;;;8.25;2.53;;;;;;;;;;5016041;28;20045;-78
2022/11/10 00:38:55;;;;;;;6.18;2.78;;;;;;;;;;5033818;28;20053;-78
2022/11/10 00:41:21;;;;;;;8.82;2.80;;;;;;;;;;5033997;28;20041;-78
2022/11/10 00:43:48;;;;;;;8.20;3.30;;;;;;;;;;5033659;28;20124;-78
2022/11/10 00:46:14;;;;;;;11.40;3.28;;;;;;;;;;5015383;28;20073;-78
2022/11/10 00:48:40;;;;;;;7.38;2.92;;;;;;;;;;5015631;28;20045;-78
2022/11/10 00:51:06;;;;;;;5.63;2.70;;;;;;;;;;5033635;28;20091;-78
2022/11/10 00:53:32;;;;;;;10.50;2.63;;;;;;;;;;5018349;28;20042;-78
2022/11/10 00:55:58;;;;;;;8.15;2.70;;;;;;;;;;5013355;28;20053;-78
2022/11/10 00:58:24;;;;;;;6.53;3.00;;;;;;;;;;5031714;28;20045;-78
2022/11/10 01:00:50;;;;;;;8.07;2.53;;;;;;;;;;5033347;28;20081;-78
2022/11/10 01:03:17;;;;;;;8.85;3.33;;;;;;;;;;5032757;28;20107;-78
2022/11/10 01:05:44;;;;;;;11.20;3.20;;;;;;;;;;5033353;28;20523;-78
2022/11/10 01:08:10;;;;;;;6.95;3.40;;;;;;;;;;5031795;28;20076;-78
2022/11/10 01:10:36;;;;;;;10.20;3.10;;;;;;;;;;5033185;28;20049;-78
2022/11/10 01:13:03;;;;;;;9.10;3.10;;;;;;;;;;5015600;28;20128;-78
2022/11/10 01:15:29;;;;;;;12.10;3.30;;;;;;;;;;5013449;28;20045;-78
2022/11/10 01:17:55;;;;;;;9.90;3.33;;;;;;;;;;5026088;28;20049;-78
2022/11/10 01:20:23;;;;;;;7.72;3.20;;;;;;;;;;5028256;28;20049;-78
2022/11/10 01:22:49;;;;;;;10.30;3.20;;;;;;;;;;5017898;28;20063;-78
2022/11/10 01:25:15;;;;;;;10.90;3.63;;;;;;;;;;5033544;28;20053;-78
2022/11/10 01:27:41;;;;;;;13.13;4.25;;;;;;;;;;5035405;28;20045;-78
2022/11/10 01:30:07;;;;;;;9.63;3.47;;;;;;;;;;5041821;28;20116;-78
2022/11/10 01:32:33;;;;;;;8.10;3.10;;;;;;;;;;5041416;28;20045;-78
2022/11/10 01:35:00;;;;;;;10.15;3.30;;;;;;;;;;5033742;28;20072;-78
2022/11/10 01:37:26;;;;;;;13.27;3.90;;;;;;;;;;5032069;28;20124;-78
2022/11/10 01:39:52;;;;;;;11.02;3.50;;;;;;;;;;5036801;28;20120;-78
2022/11/10 01:42:25;;;;;;;12.63;4.32;;;;;;;;;;5036837;28;20522;-78
2022/11/10 01:45:10;;;;;;;12.25;4.28;;;;;;;;;;5022758;28;20056;-78
2022/11/10 01:47:37;;;;;;;11.82;3.70;;;;;;;;;;5036535;28;20120;-78
2022/11/10 01:50:03;;;;;;;11.07;3.67;;;;;;;;;;5036233;28;20476;-78
2022/11/10 01:52:29;;;;;;;8.13;3.60;;;;;;;;;;5036772;28;20068;-78
2022/11/10 01:54:55;;;;;;;12.65;3.30;;;;;;;;;;5035023;28;20045;-78
2022/11/10 01:57:21;;;;;;;7.78;2.90;;;;;;;;;;5027236;28;20037;-78
2022/11/10 01:59:48;;;;;;;7.35;3.45;;;;;;;;;;5036492;28;20042;-78
2022/11/10 02:02:21;;;;;;;8.02;3.20;;;;;;;;;;5035807;28;20422;-78
2022/11/10 02:04:47;;;;;;;7.18;3.00;;;;;;;;;;5034924;28;20138;-78
2022/11/10 02:07:13;;;;;;;10.98;3.47;;;;;;;;;;5034927;28;20468;-78
2022/11/10 02:09:40;;;;;;;11.68;3.58;;;;;;;;;;5029418;28;20125;-78
2022/11/10 02:12:06;;;;;;;11.68;3.53;;;;;;;;;;5036114;28;20045;-78
2022/11/10 02:14:32;;;;;;;9.82;3.33;;;;;;;;;;5036291;28;20037;-78
2022/11/10 02:16:58;;;;;;;12.80;4.10;;;;;;;;;;5036144;28;20120;-78
2022/11/10 02:19:25;;;;;;;14.30;3.85;;;;;;;;;;5011346;28;20081;-78
2022/11/10 02:21:51;;;;;;;7.03;3.03;;;;;;;;;;5021087;28;20046;-78
2022/11/10 02:24:17;;;;;;;10.98;3.80;;;;;;;;;;5036042;28;20050;-78
2022/11/10 02:26:48;;;;;;;14.70;3.58;;;;;;;;;;5035630;28;20045;-78
2022/11/10 02:29:14;;;;;;;8.90;3.80;;;;;;;;;;5034775;28;20048;-78
2022/11/10 02:31:40;;;;;;;8.45;3.63;;;;;;;;;;5035937;28;20045;-78
2022/11/10 02:34:06;;;;;;;10.98;3.30;;;;;;;;;;5035967;28;20041;-78
2022/11/10 02:36:33;;;;;;;12.00;3.50;;;;;;;;;;5035586;28;20049;-78
2022/11/10 02:38:59;;;;;;;12.43;3.95;;;;;;;;;;5034990;28;20048;-78
2022/11/10 02:41:25;;;;;;;15.63;4.15;;;;;;;;;;5035408;28;20041;-78
2022/11/10 02:43:52;;;;;;;10.52;3.22;;;;;;;;;;5035757;28;20085;-78
2022/11/10 02:46:19;;;;;;;10.77;3.03;;;;;;;;;;5035845;28;20049;-78
2022/11/10 02:48:45;;;;;;;8.82;2.95;;;;;;;;;;5017723;28;20073;-78
2022/11/10 02:51:11;;;;;;;12.13;3.67;;;;;;;;;;5035436;28;20049;-78
2022/11/10 02:53:37;;;;;;;13.20;3.92;;;;;;;;;;5035341;28;20077;-78
2022/11/10 02:56:03;;;;;;;12.60;3.90;;;;;;;;;;5035227;28;20072;-78
2022/11/10 02:58:29;;;;;;;12.90;3.85;;;;;;;;;;5035630;28;20049;-78
2022/11/10 03:00:55;;;;;;;15.32;4.00;;;;;;;;;;5023275;28;20104;-78
2022/11/10 03:03:21;;;;;;;10.57;3.65;;;;;;;;;;5019505;28;20053;-78
2022/11/10 03:05:47;;;;;;;14.32;3.90;;;;;;;;;;5035308;28;20121;-78
2022/11/10 03:08:13;;;;;;;13.65;4.47;;;;;;;;;;5017908;28;20049;-78
2022/11/10 03:10:39;;;;;;;10.80;4.30;;;;;;;;;;5017594;28;20057;-78
2022/11/10 03:13:05;;;;;;;13.27;4.53;;;;;;;;;;5035048;28;20041;-78
2022/11/10 03:15:31;;;;;;;13.85;4.13;;;;;;;;;;5029539;28;20377;-78
2022/11/10 03:18:01;;;;;;;13.57;4.18;;;;;;;;;;5034944;28;20052;-78
2022/11/10 03:20:27;;;;;;;11.77;3.97;;;;;;;;;;5033039;28;20046;-78
2022/11/10 03:22:53;;;;;;;12.50;4.50;;;;;;;;;;5034611;28;20055;-78
2022/11/10 03:25:19;;;;;;;16.63;4.53;;;;;;;;;;5016962;28;20061;-78
2022/11/10 03:27:45;;;;;;;12.98;3.95;;;;;;;;;;5034608;28;20049;-78
2022/11/10 03:30:12;;;;;;;14.98;4.22;;;;;;;;;;5013953;28;20046;-78
2022/11/10 03:32:38;;;;;;;10.73;4.03;;;;;;;;;;5014215;28;20052;-78
2022/11/10 03:35:04;;;;;;;8.52;3.83;;;;;;;;;;5034663;28;20061;-78
2022/11/10 03:37:30;;;;;;;13.65;3.80;;;;;;;;;;5034641;28;20124;-78
2022/11/10 03:39:56;;;;;;;13.73;4.45;;;;;;;;;;5028604;28;20081;-78
2022/11/10 03:42:22;;;;;;;12.15;4.07;;;;;;;;;;5032149;28;20432;-78
2022/11/10 03:44:48;;;;;;;13.23;4.45;;;;;;;;;;5023433;28;20514;-78
2022/11/10 03:47:14;;;;;;;13.38;4.10;;;;;;;;;;5029018;28;20049;-78
2022/11/10 03:49:40;;;;;;;12.85;4.55;;;;;;;;;;5034530;28;20038;-78
2022/11/10 03:52:06;;;;;;;10.98;4.30;;;;;;;;;;5010058;28;20068;-78
2022/11/10 03:54:32;;;;;;;11.18;3.95;;;;;;;;;;5034357;28;20044;-78
2022/11/10 03:56:58;;;;;;;15.65;4.53;;;;;;;;;;5026724;28;20117;-78
2022/11/10 03:59:24;;;;;;;17.50;4.55;;;;;;;;;;4997041;28;20124;-78
2022/11/10 04:01:50;;;;;;;12.65;4.82;;;;;;;;;;5033843;28;20079;-78
2022/11/10 04:09:45;;;;;;;12.65;4.00;;;;;;;;;;5019365;28;20046;-78
2022/11/10 04:17:41;;;;;;;14.13;4.07;;;;;;;;;;5034004;28;20041;-78
2022/11/10 04:20:07;;;;;;;11.55;4.22;;;;;;;;;;5034084;28;20104;-78
2022/11/10 04:25:18;;;;;;;17.35;4.60;;;;;;;;;;5033657;28;20046;-78
2022/11/10 04:27:44;;;;;;;17.63;4.32;;;;;;;;;;5033803;28;20122;-78
2022/11/10 04:30:10;;;;;;;15.48;3.97;;;;;;;;;;5033704;28;20041;-78
2022/11/10 04:32:36;;;;;;;14.07;4.20;;;;;;;;;;5033476;28;20082;-78
2022/11/10 04:35:02;;;;;;;12.88;4.32;;;;;;;;;;5018384;28;20049;-78
2022/11/10 04:37:28;;;;;;;15.30;4.30;;;;;;;;;;5029266;28;20476;-78
2022/11/10 04:39:54;;;;;;;14.88;4.60;;;;;;;;;;5016785;28;20101;-78
2022/11/10 04:42:20;;;;;;;16.90;4.28;;;;;;;;;;5013756;28;20488;-78
2022/11/10 04:44:46;;;;;;;13.57;4.03;;;;;;;;;;5033221;28;20053;-78
2022/11/10 04:47:12;;;;;;;11.25;4.00;;;;;;;;;;5016048;28;20046;-78
2022/11/10 04:49:38;;;;;;;18.85;4.90;;;;;;;;;;5032556;28;20044;-78
2022/11/10 04:52:04;;;;;;;12.55;3.85;;;;;;;;;;5030530;28;20041;-78
2022/11/10 04:54:30;;;;;;;14.68;5.13;;;;;;;;;;5027871;28;20042;-78
2022/11/10 04:56:56;;;;;;;14.90;4.15;;;;;;;;;;4995904;28;20045;-78
2022/11/10 04:59:22;;;;;;;14.35;4.28;;;;;;;;;;5026659;28;20050;-78
2022/11/10 05:01:48;;;;;;;16.65;3.90;;;;;;;;;;5033100;28;20041;-78
2022/11/10 05:04:14;;;;;;;14.02;3.83;;;;;;;;;;5033565;28;20072;-78
2022/11/10 05:06:40;;;;;;;11.90;4.28;;;;;;;;;;5037362;28;20561;-78
2022/11/10 05:09:06;;;;;;;13.50;4.15;;;;;;;;;;5015872;28;20046;-78
2022/11/10 05:11:32;;;;;;;18.02;4.50;;;;;;;;;;5025304;28;20041;-78
2022/11/10 05:13:58;;;;;;;16.35;4.60;;;;;;;;;;5037849;28;20051;-78
2022/11/10 05:16:24;;;;;;;17.23;4.57;;;;;;;;;;5035913;28;20045;-78
2022/11/10 05:18:53;;;;;;;15.43;4.70;;;;;;;;;;5035913;28;20052;-78
2022/11/10 05:21:19;;;;;;;15.48;4.53;;;;;;;;;;5032668;28;20072;-78
2022/11/10 05:23:45;;;;;;;13.27;4.60;;;;;;;;;;5037197;28;20041;-78
2022/11/10 05:26:11;;;;;;;15.32;4.70;;;;;;;;;;5036701;28;20384;-78
2022/11/10 05:28:38;;;;;;;14.77;4.97;;;;;;;;;;5037178;28;20156;-78
2022/11/10 05:31:04;;;;;;;17.08;5.03;;;;;;;;;;5037744;28;20037;-78
2022/11/10 05:33:30;;;;;;;15.85;4.75;;;;;;;;;;5030969;28;20491;-78
2022/11/10 05:35:56;;;;;;;20.90;4.32;;;;;;;;;;5033440;28;20048;-78
2022/11/10 05:38:22;;;;;;;15.70;5.05;;;;;;;;;;5036616;28;20080;-78
2022/11/10 05:40:48;;;;;;;22.45;6.05;;;;;;;;;;5036650;28;20404;-78
2022/11/10 05:43:14;;;;;;;20.65;4.88;;;;;;;;;;5036823;28;20041;-78
2022/11/10 05:45:41;;;;;;;17.27;4.82;;;;;;;;;;5036551;28;20546;-78
2022/11/10 05:48:07;;;;;;;16.25;4.85;;;;;;;;;;5019103;28;20053;-78
2022/11/10 05:50:33;;;;;;;12.02;4.35;;;;;;;;;;5025765;28;20107;-78
2022/11/10 05:52:59;;;;;;;17.35;5.32;;;;;;;;;;5019737;28;20049;-78
2022/11/10 05:55:27;;;;;;;18.63;5.13;;;;;;;;;;5036731;28;20057;-78
2022/11/10 05:57:53;;;;;;;23.50;4.90;;;;;;;;;;5023520;28;20114;-78
2022/11/10 06:00:20;;;;;;;11.63;3.97;;;;;;;;;;5044309;28;20052;-78
2022/11/10 06:02:56;;;;;;;14.85;4.28;;;;;;;;;;5055952;28;20053;-78
2022/11/10 06:05:22;;;;;;;14.90;4.67;;;;;;;;;;5023825;28;20056;-78
2022/11/10 06:07:48;;;;;;;16.85;4.63;;;;;;;;;;5036631;28;20052;-78
2022/11/10 06:10:14;;;;;;;15.82;5.22;;;;;;;;;;5036663;28;20128;-78
2022/11/10 06:12:40;;;;;;;13.60;4.40;;;;;;;;;;5037046;28;20042;-78
2022/11/10 06:15:07;;;;;;;16.20;5.13;;;;;;;;;;5035731;28;20041;-78
2022/11/10 06:17:33;;;;;;;20.30;4.90;;;;;;;;;;5035956;28;20116;-78
2022/11/10 06:19:59;;;;;;;15.27;4.93;;;;;;;;;;5035779;28;20120;-78
2022/11/10 06:22:25;;;;;;;18.27;4.70;;;;;;;;;;5036223;28;20045;-78
2022/11/10 06:24:51;;;;;;;12.55;4.13;;;;;;;;;;5036473;28;20099;-78
2022/11/10 06:27:17;;;;;;;14.05;4.78;;;;;;;;;;5018716;28;20096;-78
2022/11/10 06:29:44;;;;;;;15.00;4.25;;;;;;;;;;5036127;28;20041;-78
2022/11/10 06:32:10;;;;;;;20.27;4.88;;;;;;;;;;5036247;28;20041;-78
2022/11/10 06:34:36;;;;;;;17.60;4.82;;;;;;;;;;5035600;28;20052;-78
2022/11/10 06:37:03;;;;;;;18.08;5.28;;;;;;;;;;5036033;28;20506;-78
2022/11/10 06:39:29;;;;;;;16.67;5.15;;;;;;;;;;5035903;28;20065;-78
2022/11/10 06:41:55;;;;;;;19.95;4.78;;;;;;;;;;5035186;28;20155;-78
2022/11/10 06:44:21;;;;;;;16.38;4.75;;;;;;;;;;5035802;28;20048;-78
2022/11/10 06:46:47;;;;;;;16.88;5.95;;;;;;;;;;5034730;28;20053;-78
2022/11/10 06:49:13;;;;;;;15.82;5.00;;;;;;;;;;5035596;28;20041;-78
2022/11/10 06:51:39;;;;;;;20.00;5.50;;;;;;;;;;5017572;28;20545;-78
2022/11/10 06:54:05;;;;;;;16.27;4.45;;;;;;;;;;5028389;28;20046;-78
2022/11/10 06:56:31;;;;;;;26.08;5.78;;;;;;;;;;5031862;28;20484;-78
2022/11/10 06:58:57;;;;;;;19.40;4.18;;;;;;;;;;5035563;28;20084;-78
2022/11/10 07:01:25;;;;;;;16.92;4.45;;;;;;;;;;5035473;28;20128;-78
2022/11/10 07:03:52;;;;;;;20.90;5.35;;;;;;;;;;5029043;28;20058;-78
2022/11/10 07:06:19;;;;;;;22.75;5.13;;;;;;;;;;5014581;28;20100;-78
2022/11/10 07:08:45;;;;;;;21.42;4.72;;;;;;;;;;5012649;28;20049;-78
2022/11/10 07:11:11;;;;;;;23.85;4.88;;;;;;;;;;5026441;28;20510;-77
2022/11/10 07:13:37;;;;;;;18.23;4.38;;;;;;;;;;5033695;28;20426;-77
2022/11/10 07:16:04;;;;;;;18.50;4.53;;;;;;;;;;5033814;28;20080;-77
2022/11/10 07:18:30;;;;;;;23.08;5.25;;;;;;;;;;5033476;28;20100;-78
2022/11/10 07:20:56;;;;;;;18.67;5.28;;;;;;;;;;5035004;28;20492;-78
2022/11/10 07:23:22;;;;;;;19.55;4.30;;;;;;;;;;5035421;28;20049;-78
2022/11/10 07:25:48;;;;;;;18.88;4.60;;;;;;;;;;5028749;28;20166;-80
2022/11/10 07:28:14;;;;;;;17.67;4.72;;;;;;;;;;5022191;28;20050;-78
2022/11/10 07:30:41;;;;;;;17.20;4.30;;;;;;;;;;5015272;28;20092;-78
2022/11/10 07:33:09;;;;;;;12.23;4.43;;;;;;;;;;5028965;28;20046;-78
2022/11/10 07:35:35;;;;;;;14.85;4.07;;;;;;;;;;5035053;28;20037;-78
2022/11/10 07:38:02;;;;;;;20.92;4.78;;;;;;;;;;5020313;28;20057;-78
2022/11/10 07:40:28;;;;;;;19.88;4.60;;;;;;;;;;5014708;28;20121;-78
2022/11/10 07:42:54;;;;;;;16.48;5.00;;;;;;;;;;5015218;28;20092;-78
2022/11/10 07:45:20;;;;;;;20.98;5.20;;;;;;;;;;5034246;28;20072;-78
2022/11/10 07:47:46;;;;;;;24.48;4.70;;;;;;;;;;5034091;28;20412;-78
2022/11/10 07:50:12;;;;;;;20.77;4.82;;;;;;;;;;5035179;28;20475;-78
2022/11/10 07:52:39;;;;;;;13.98;4.18;;;;;;;;;;5033665;28;20480;-78
2022/11/10 07:55:05;;;;;;;18.30;4.30;;;;;;;;;;5032970;28;20141;-78
2022/11/10 07:57:32;;;;;;;24.90;5.28;;;;;;;;;;5033970;28;20088;-78
2022/11/10 07:59:58;;;;;;;21.58;4.53;;;;;;;;;;5030251;28;20053;-77
2022/11/10 08:02:25;;;;;;;16.02;4.72;;;;;;;;;;5026385;28;20037;-78
2022/11/10 08:04:51;;;;;;;15.27;4.13;;;;;;;;;;5020075;28;20500;-78
2022/11/10 08:07:17;;;;;;;20.08;4.90;;;;;;;;;;5018016;28;20419;-78
2022/11/10 08:09:43;;;;;;;23.08;4.90;;;;;;;;;;5028619;28;20504;-78
2022/11/10 08:12:09;;;;;;;15.35;4.50;;;;;;;;;;5021189;28;20512;-77
2022/11/10 08:14:36;;;;;;;12.98;3.65;;;;;;;;;;5031166;28;20045;-78
2022/11/10 08:17:02;;;;;;;18.67;4.63;;;;;;;;;;5022499;28;20052;-77
2022/11/10 08:19:28;;;;;;;12.95;3.97;;;;;;;;;;5030290;28;20048;-79
2022/11/10 08:21:54;;;;;;;19.88;4.68;;;;;;;;;;5015460;28;20117;-77
2022/11/10 08:24:20;;;;;;;16.48;4.25;;;;;;;;;;5017139;28;20042;-78
2022/11/10 08:26:49;;;;;;;13.13;4.20;;;;;;;;;;5024188;28;20053;-80
2022/11/10 08:29:18;;;;;;;18.58;4.57;;;;;;;;;;5008087;28;20046;-79
2022/11/10 08:31:44;;;;;;;17.73;4.47;;;;;;;;;;5037768;28;20041;-81
2022/11/10 08:34:10;;;;;;;15.13;4.03;;;;;;;;;;5020055;28;20046;-79
2022/11/10 08:36:36;;;;;;;23.42;4.95;;;;;;;;;;5037412;28;20042;-79
2022/11/10 08:39:03;;;;;;;16.23;3.95;;;;;;;;;;5019677;28;20053;-79
2022/11/10 08:41:29;;;;;;;16.42;4.00;;;;;;;;;;5022213;28;20041;-80
2022/11/10 08:43:55;;;;;;;14.80;4.22;;;;;;;;;;5037407;28;20045;-80
2022/11/10 08:46:21;;;;;;;14.32;4.22;;;;;;;;;;5019262;28;20048;-80
2022/11/10 08:48:47;;;;;;;21.20;4.63;;;;;;;;;;5019998;28;20063;-80
2022/11/10 08:51:13;;;;;;;19.45;4.05;;;;;;;;;;5037440;28;20105;-80
2022/11/10 08:53:39;;;;;;;15.90;3.70;;;;;;;;;;5019767;28;20038;-80
2022/11/10 08:56:05;;;;;;;16.75;3.92;;;;;;;;;;5003123;28;20049;-79
2022/11/10 08:58:31;;;;;;;20.02;4.95;;;;;;;;;;5037361;28;20064;-80
2022/11/10 09:00:57;;;;;;;18.88;3.85;;;;;;;;;;5037328;28;20179;-80
2022/11/10 09:03:24;;;;;;;17.85;4.20;;;;;;;;;;5036741;28;20053;-79
2022/11/10 09:05:51;;;;;;;15.80;4.00;;;;;;;;;;5037430;28;20111;-79
2022/11/10 09:08:17;;;;;;;20.67;4.10;;;;;;;;;;5037390;28;20522;-79
2022/11/10 09:10:47;;;;;;;13.88;4.40;;;;;;;;;;5010099;28;20046;-80
2022/11/10 09:13:13;;;;;;;17.92;4.10;;;;;;;;;;4994934;28;20072;-79
2022/11/10 09:15:40;;;;;;;19.50;4.60;;;;;;;;;;5037867;28;20048;-80
2022/11/10 09:18:07;;;;;;;16.80;4.35;;;;;;;;;;5019431;28;20106;-80
2022/11/10 09:20:34;;;;;;;22.45;6.13;;;;;;;;;;5037292;28;20117;-80
2022/11/10 09:23:10;;;;;;;17.40;4.10;;;;;;;;;;5019787;28;20112;-80
2022/11/10 09:25:37;;;;;;;20.83;4.93;;;;;;;;;;5030320;28;20041;-79
2022/11/10 09:28:03;;;;;;;12.52;3.72;;;;;;;;;;5037026;28;20101;-80
2022/11/10 09:30:29;;;;;;;20.38;6.05;;;;;;;;;;5037263;28;20037;-80
2022/11/10 09:32:56;;;;;;;12.10;3.50;;;;;;;;;;5037637;28;20065;-80
2022/11/10 09:35:22;;;;;;;12.15;3.58;;;;;;;;;;5036104;28;20041;-80
2022/11/10 09:37:49;;;;;;;18.52;4.65;;;;;;;;;;5021666;28;20034;-80
2022/11/10 09:40:19;;;;;;;19.08;4.68;;;;;;;;;;5036588;28;20125;-80
2022/11/10 09:42:48;;;;;;;13.75;3.67;;;;;;;;;;5010579;28;20049;-80
2022/11/10 09:45:29;;;;;;;20.50;4.05;;;;;;;;;;5026722;28;20042;-79
2022/11/10 09:48:01;;;;;;;15.88;3.92;;;;;;;;;;5035725;28;20395;-80
2022/11/10 09:50:35;;;;;;;14.98;4.00;;;;;;;;;;5021545;28;20045;-79
2022/11/10 09:53:01;;;;;;;14.60;3.90;;;;;;;;;;5040860;28;20112;-79
2022/11/10 09:55:33;;;;;;;17.88;4.80;;;;;;;;;;5006720;28;20110;-81
2022/11/10 09:58:00;;;;;;;17.98;5.30;;;;;;;;;;5040530;28;20049;-81
2022/11/10 10:00:30;;;;;;;18.60;4.55;;;;;;;;;;5036043;28;20093;-80
2022/11/10 10:03:01;;;;;;;16.17;4.80;;;;;;;;;;5028964;28;20057;-81
2022/11/10 10:05:29;;;;;;;15.88;4.70;;;;;;;;;;5023105;28;20220;-81
2022/11/10 10:08:07;;;;;;;23.83;4.72;;;;;;;;;;5017591;28;20049;-81
2022/11/10 10:10:49;;;;;;;14.65;4.43;;;;;;;;;;4985827;28;20056;-81
2022/11/10 10:13:34;;;;;;;14.38;4.18;;;;;;;;;;4994935;28;20045;-80
2022/11/10 10:16:11;;;;;;;18.90;5.15;;;;;;;;;;5039943;28;20495;-79
2022/11/10 10:18:45;;;;;;;16.73;4.80;;;;;;;;;;5021215;28;20601;-80
2022/11/10 10:21:27;;;;;;;12.93;4.13;;;;;;;;;;5023128;28;20064;-81
2022/11/10 10:23:54;;;;;;;14.88;3.88;;;;;;;;;;5020624;28;20056;-79
2022/11/10 10:26:26;;;;;;;13.13;4.00;;;;;;;;;;5040252;28;20427;-80
2022/11/10 10:28:54;;;;;;;21.35;4.90;;;;;;;;;;5025921;28;20076;-80
2022/11/10 10:31:24;;;;;;;14.40;4.32;;;;;;;;;;5035115;28;20053;-80
2022/11/10 10:33:51;;;;;;;15.98;4.95;;;;;;;;;;5035377;28;20042;-81
2022/11/10 10:36:25;;;;;;;16.35;5.05;;;;;;;;;;5011624;28;20045;-81
2022/11/10 10:38:55;;;;;;;15.70;5.07;;;;;;;;;;5032997;28;20049;-80
2022/11/10 10:41:23;;;;;;;12.40;4.63;;;;;;;;;;5019587;28;20050;-80
2022/11/10 10:43:51;;;;;;;18.80;4.93;;;;;;;;;;5042914;28;20082;-80
2022/11/10 10:46:25;;;;;;;20.88;5.55;;;;;;;;;;5030147;28;20038;-81
2022/11/10 10:49:06;;;;;;;20.08;5.25;;;;;;;;;;5026400;28;20046;-79
2022/11/10 10:51:32;;;;;;;15.13;5.15;;;;;;;;;;5026903;28;20100;-81
2022/11/10 10:53:58;;;;;;;15.70;5.28;;;;;;;;;;5020713;28;20053;-79
2022/11/10 10:56:31;;;;;;;21.27;5.18;;;;;;;;;;5018362;28;20049;-80
2022/11/10 10:58:58;;;;;;;15.63;4.95;;;;;;;;;;5020413;28;20060;-79
2022/11/10 11:01:24;;;;;;;12.00;3.90;;;;;;;;;;5029566;28;20092;-79
2022/11/10 11:03:51;;;;;;;13.00;4.03;;;;;;;;;;5028379;28;20053;-80
2022/11/10 11:06:19;;;;;;;16.60;4.63;;;;;;;;;;5036757;28;20052;-80
2022/11/10 11:08:57;;;;;;;17.00;4.78;;;;;;;;;;5036898;28;20148;-80
2022/11/10 11:11:25;;;;;;;14.35;5.28;;;;;;;;;;5036888;28;20095;-80
2022/11/10 11:13:51;;;;;;;18.73;4.90;;;;;;;;;;5036219;28;20046;-80
2022/11/10 11:16:17;;;;;;;15.43;5.05;;;;;;;;;;5017523;28;20049;-79
2022/11/10 11:18:43;;;;;;;15.52;4.93;;;;;;;;;;5016295;28;20077;-80
2022/11/10 11:21:12;;;;;;;16.65;5.53;;;;;;;;;;5006962;28;20048;-80
2022/11/10 11:23:47;;;;;;;17.25;6.53;;;;;;;;;;5016649;28;20093;-80
2022/11/10 11:26:22;;;;;;;16.70;5.93;;;;;;;;;;5017614;28;20404;-79
2022/11/10 11:28:57;;;;;;;14.32;6.50;;;;;;;;;;5023528;28;20564;-80
2022/11/10 11:31:23;;;;;;;17.60;6.70;;;;;;;;;;5028686;28;20045;-80
2022/11/10 11:33:59;;;;;;;14.38;6.32;;;;;;;;;;5038913;28;20042;-81
2022/11/10 11:36:40;;;;;;;23.65;7.00;;;;;;;;;;5031145;28;20042;-79
2022/11/10 11:39:24;;;;;;;15.90;6.43;;;;;;;;;;5018041;28;20050;-79
2022/11/10 11:41:59;;;;;;;17.33;6.63;;;;;;;;;;5037707;28;20049;-79
2022/11/10 11:44:36;;;;;;;18.40;6.18;;;;;;;;;;5020907;28;20120;-79
2022/11/10 11:47:12;;;;;;;21.58;7.30;;;;;;;;;;5036557;28;20118;-79
2022/11/10 11:49:50;;;;;;;20.45;6.55;;;;;;;;;;5037348;28;20144;-79
2022/11/10 11:52:37;;;;;;;18.92;6.25;;;;;;;;;;5037002;28;20033;-79
2022/11/10 11:55:12;;;;;;;21.83;6.78;;;;;;;;;;5025601;28;20042;-79
2022/11/10 11:57:57;;;;;;;20.00;6.22;;;;;;;;;;5018406;28;20089;-79
2022/11/10 12:00:23;;;;;;;25.67;6.80;;;;;;;;;;4999318;28;20435;-79
2022/11/10 12:02:55;;;;;;;15.98;6.25;;;;;;;;;;5016920;28;20042;-79
2022/11/10 12:05:42;;;;;;;23.17;6.65;;;;;;;;;;5016774;28;20076;-79
2022/11/10 12:08:08;;;;;;;19.70;6.88;;;;;;;;;;5016979;28;20437;-79
2022/11/10 12:10:39;;;;;;;22.98;6.00;;;;;;;;;;5035629;28;20045;-79
2022/11/10 12:13:08;;;;;;;18.40;6.00;;;;;;;;;;5035107;28;20048;-79
2022/11/10 12:15:40;;;;;;;20.75;6.65;;;;;;;;;;5034698;28;20067;-79
2022/11/10 12:18:13;;;;;;;19.02;6.68;;;;;;;;;;5035214;28;20557;-79
2022/11/10 12:20:58;;;;;;;20.55;6.20;;;;;;;;;;4998104;28;20487;-79
2022/11/10 12:23:30;;;;;;;21.55;6.50;;;;;;;;;;5019267;28;20049;-79
2022/11/10 12:26:11;;;;;;;17.55;6.25;;;;;;;;;;5035046;28;20041;-79
2022/11/10 12:28:39;;;;;;;19.30;5.65;;;;;;;;;;5034416;28;20451;-79
2022/11/10 12:31:09;;;;;;;18.73;5.78;;;;;;;;;;5034897;28;20041;-79
2022/11/10 12:33:41;;;;;;;19.23;5.25;;;;;;;;;;5034958;28;20049;-79
2022/11/10 12:36:10;;;;;;;13.18;5.15;;;;;;;;;;5034297;28;20485;-79
2022/11/10 12:38:45;;;;;;;15.27;4.85;;;;;;;;;;5034463;28;20051;-79
2022/11/10 12:41:16;;;;;;;21.97;5.93;;;;;;;;;;5014547;28;20049;-79
2022/11/10 12:43:50;;;;;;;16.80;5.38;;;;;;;;;;4994231;28;20096;-79
2022/11/10 12:46:16;;;;;;;23.48;5.65;;;;;;;;;;5035031;28;20052;-79
2022/11/10 12:48:42;;;;;;;19.83;5.95;;;;;;;;;;5033951;28;20076;-79
2022/11/10 12:51:12;;;;;;;22.73;5.97;;;;;;;;;;5034015;28;20045;-79
2022/11/10 12:53:40;;;;;;;17.83;5.05;;;;;;;;;;5042292;28;20499;-79
2022/11/10 12:56:12;;;;;;;19.33;5.55;;;;;;;;;;5054014;28;20045;-79
2022/11/10 12:58:38;;;;;;;21.63;5.40;;;;;;;;;;5054460;28;20140;-79
2022/11/10 13:01:12;;;;;;;27.25;6.18;;;;;;;;;;5041195;28;20065;-79
2022/11/10 13:03:39;;;;;;;17.40;5.40;;;;;;;;;;4996383;28;1098938;-79
2022/11/10 13:06:23;;;;;;;21.13;5.07;;;;;;;;;;5022962;28;20046;-79
2022/11/10 13:08:50;;;;;;;19.55;5.97;;;;;;;;;;5015855;28;20064;-79
2022/11/10 13:11:15;;;;;;;13.90;5.00;;;;;;;;;;5015793;28;20038;-79
2022/11/10 13:13:50;;;;;;;17.92;5.40;;;;;;;;;;5016764;28;20038;-79
2022/11/10 13:16:35;;;;;;;18.38;5.00;;;;;;;;;;5016161;28;20069;-79
2022/11/10 13:19:01;;;;;;;15.05;5.57;;;;;;;;;;5015220;28;20046;-79
2022/11/10 13:21:46;;;;;;;17.77;5.43;;;;;;;;;;5028313;28;20073;-79
2022/11/10 13:24:19;;;;;;;21.63;5.38;;;;;;;;;;5020218;28;20044;-79
2022/11/10 13:26:45;;;;;;;19.95;5.15;;;;;;;;;;5039516;28;20052;-79
2022/11/10 13:29:31;;;;;;;14.95;4.50;;;;;;;;;;5032621;28;20049;-79
2022/11/10 13:31:57;;;;;;;15.38;5.07;;;;;;;;;;5019136;28;20180;-79
2022/11/10 13:34:53;;;;;;;19.52;5.30;;;;;;;;;;5019532;28;20038;-79
2022/11/10 13:37:34;;;;;;;15.48;5.80;;;;;;;;;;5013110;28;20050;-80
2022/11/10 13:40:19;;;;;;;16.02;4.90;;;;;;;;;;5001323;28;20136;-79
2022/11/10 13:42:57;;;;;;;23.88;6.00;;;;;;;;;;5026619;28;20054;-79
2022/11/10 13:45:26;;;;;;;23.63;5.32;;;;;;;;;;5021302;28;20115;-79
2022/11/10 13:47:57;;;;;;;18.35;5.20;;;;;;;;;;5039162;28;20100;-79
2022/11/10 13:50:29;;;;;;;22.77;5.40;;;;;;;;;;5021749;28;20187;-79
2022/11/10 13:53:14;;;;;;;21.83;5.32;;;;;;;;;;5038909;28;20487;-79
2022/11/10 13:55:58;;;;;;;15.13;4.57;;;;;;;;;;5039249;28;20171;-79
2022/11/10 13:58:29;;;;;;;21.38;4.78;;;;;;;;;;5029477;28;20057;-80
2022/11/10 14:01:14;;;;;;;22.60;4.78;;;;;;;;;;5040025;28;20072;-80
2022/11/10 14:03:49;;;;;;;17.88;5.50;;;;;;;;;;5026234;28;20099;-80
2022/11/10 14:06:39;;;;;;;13.30;4.75;;;;;;;;;;5039586;28;20476;-80
2022/11/10 14:09:17;;;;;;;16.58;4.85;;;;;;;;;;5019266;28;20060;-80
2022/11/10 14:11:46;;;;;;;13.52;4.85;;;;;;;;;;5039775;28;20086;-80
2022/11/10 14:14:24;;;;;;;16.08;4.30;;;;;;;;;;5040124;28;20156;-80
2022/11/10 14:16:52;;;;;;;14.45;4.25;;;;;;;;;;5039492;28;20120;-80
2022/11/10 14:19:26;;;;;;;22.63;4.70;;;;;;;;;;5040178;28;20049;-80
2022/11/10 14:21:55;;;;;;;16.55;3.80;;;;;;;;;;5022564;28;20408;-80
2022/11/10 14:24:28;;;;;;;19.77;5.60;;;;;;;;;;5020452;28;20042;-80
2022/11/10 14:26:57;;;;;;;17.08;4.97;;;;;;;;;;5021123;28;20057;-80
2022/11/10 14:29:27;;;;;;;15.82;5.10;;;;;;;;;;5029144;28;20037;-80
2022/11/10 14:31:54;;;;;;;22.23;6.70;;;;;;;;;;5039826;28;20099;-80
2022/11/10 14:34:22;;;;;;;20.15;4.80;;;;;;;;;;5023261;28;20049;-80
2022/11/10 14:37:03;;;;;;;16.75;5.15;;;;;;;;;;5037129;28;20063;-79
2022/11/10 14:39:33;;;;;;;17.23;5.30;;;;;;;;;;5024668;28;20120;-79
2022/11/10 14:42:01;;;;;;;18.92;5.88;;;;;;;;;;5040006;28;20041;-79
2022/11/10 14:44:28;;;;;;;18.35;5.95;;;;;;;;;;5039508;28;20034;-79
2022/11/10 14:46:54;;;;;;;23.38;6.95;;;;;;;;;;5038396;28;20403;-80
2022/11/10 14:49:23;;;;;;;20.48;5.57;;;;;;;;;;5048535;28;20104;-80
2022/11/10 14:51:50;;;;;;;18.67;5.03;;;;;;;;;;5041003;28;20063;-79
2022/11/10 14:54:21;;;;;;;18.40;5.05;;;;;;;;;;5010663;28;20097;-79
2022/11/10 14:56:47;;;;;;;19.52;5.07;;;;;;;;;;5040323;28;20091;-80